Time;durP1;ratioP1;P1;durP2;ratioP2;P2;SDS_P1;SDS_P2;PMS_P1;PMS_P2;Temp;Humidity;BMP_temperature;BMP_pressure;BME280_temperature;BME280_humidity;BME280_pressure;Samples;Min_cycle;Max_cycle;Signal;HPM_P1;HPM_P2
2021/10/29 00:03:22;;;;;;;39.90;29.20;;;7.90;99.90;;;;;;5071108;28;20452;-93
2021/10/29 00:05:49;;;;;;;38.60;30.10;;;7.90;99.90;;;;;;5077724;28;20495;-94
2021/10/29 00:08:17;;;;;;;38.47;30.30;;;7.90;99.90;;;;;;5070641;28;20525;-94
2021/10/29 00:10:44;;;;;;;40.07;28.40;;;7.90;99.90;;;;;;5072920;28;20472;-94
2021/10/29 00:13:18;;;;;;;37.13;28.50;;;7.90;99.90;;;;;;5074153;28;20452;-92
2021/10/29 00:15:45;;;;;;;40.83;29.50;;;7.80;99.90;;;;;;5068869;28;20445;-94
2021/10/29 00:23:45;;;;;;;38.37;29.20;;;7.70;99.90;;;;;;5078294;28;20501;-94
2021/10/29 00:42:45;;;;;;;34.67;25.33;;;7.80;99.90;;;;;;6136866;22;1403044;-94
2021/10/29 00:47:55;;;;;;;38.27;27.97;;;7.40;99.90;;;;;;6174322;23;20394;-94
2021/10/29 00:50:27;;;;;;;34.07;26.60;;;7.30;99.90;;;;;;6167071;23;20449;-95
2021/10/29 00:55:40;;;;;;;34.40;27.50;;;7.30;99.90;;;;;;6185399;23;20473;-94
2021/10/29 00:58:15;;;;;;;35.03;27.00;;;7.30;99.90;;;;;;6186858;23;20429;-94
2021/10/29 01:00:44;;;;;;;40.43;28.97;;;7.30;99.90;;;;;;6185459;23;20441;-93
2021/10/29 01:03:11;;;;;;;36.63;29.83;;;7.30;99.90;;;;;;6191130;23;20418;-94
2021/10/29 01:05:39;;;;;;;37.10;29.03;;;7.30;99.90;;;;;;6183474;23;20440;-94
2021/10/29 01:08:07;;;;;;;34.70;27.50;;;7.30;99.90;;;;;;6178741;23;20445;-94
2021/10/29 01:10:35;;;;;;;37.70;28.10;;;7.20;99.90;;;;;;6175105;23;20514;-94
2021/10/29 01:13:02;;;;;;;37.70;28.10;;;7.20;99.90;;;;;;6176203;23;20414;-94
2021/10/29 01:15:31;;;;;;;39.87;29.07;;;7.20;99.90;;;;;;6185165;23;20462;-94
2021/10/29 01:17:58;;;;;;;35.97;28.00;;;7.10;99.90;;;;;;6186589;23;20450;-94
2021/10/29 01:20:27;;;;;;;39.30;29.60;;;7.20;99.90;;;;;;6174801;23;20448;-94
2021/10/29 01:23:02;;;;;;;37.10;28.73;;;7.20;99.90;;;;;;6183253;23;20398;-94
2021/10/29 01:25:31;;;;;;;39.20;26.00;;;7.30;99.90;;;;;;6185543;23;20402;-94
2021/10/29 01:28:13;;;;;;;33.83;28.83;;;7.20;99.90;;;;;;6184545;23;20545;-92
2021/10/29 01:30:41;;;;;;;37.97;27.00;;;7.20;99.90;;;;;;6183668;23;20517;-92
2021/10/29 01:33:08;;;;;;;33.70;26.37;;;7.10;99.90;;;;;;6181984;23;20421;-92
2021/10/29 01:35:38;;;;;;;37.10;28.87;;;7.20;99.90;;;;;;6181611;23;20448;-92
2021/10/29 01:38:05;;;;;;;36.80;26.97;;;7.10;99.90;;;;;;6190865;23;20441;-93
2021/10/29 01:43:14;;;;;;;35.53;26.70;;;7.10;99.90;;;;;;6173926;23;20395;-93
2021/10/29 01:45:41;;;;;;;31.37;23.97;;;7.10;99.90;;;;;;6177230;23;20470;-92
2021/10/29 01:48:08;;;;;;;35.87;27.43;;;7.10;99.90;;;;;;6165862;23;20430;-92
2021/10/29 01:50:36;;;;;;;38.20;27.47;;;6.90;99.90;;;;;;6163855;23;20448;-92
2021/10/29 01:53:03;;;;;;;42.73;28.80;;;6.80;99.90;;;;;;6162020;23;20419;-92
2021/10/29 01:55:30;;;;;;;38.07;27.73;;;6.70;99.90;;;;;;6165059;23;20421;-92
2021/10/29 01:57:57;;;;;;;33.50;25.47;;;6.70;99.90;;;;;;6184881;23;20430;-93
2021/10/29 02:00:24;;;;;;;33.30;25.83;;;6.70;99.90;;;;;;6180783;23;20426;-92
2021/10/29 02:02:51;;;;;;;43.27;29.47;;;6.70;99.90;;;;;;6180807;23;20402;-94
2021/10/29 02:05:18;;;;;;;38.90;28.17;;;6.80;99.90;;;;;;6174557;23;20403;-92
2021/10/29 02:07:47;;;;;;;34.87;26.87;;;6.80;99.90;;;;;;6164458;23;20451;-92
2021/10/29 02:10:13;;;;;;;37.80;28.10;;;6.70;99.90;;;;;;6179109;23;20482;-92
2021/10/29 02:12:40;;;;;;;42.63;29.43;;;6.70;99.90;;;;;;6165753;23;20421;-93
2021/10/29 02:15:09;;;;;;;36.20;26.83;;;6.70;99.90;;;;;;6170658;23;20418;-92
2021/10/29 02:17:37;;;;;;;36.67;28.27;;;6.70;99.90;;;;;;6176647;23;20403;-92
2021/10/29 02:20:05;;;;;;;34.50;26.07;;;6.70;99.90;;;;;;6170988;23;20465;-92
2021/10/29 02:22:37;;;;;;;34.57;25.97;;;6.70;99.90;;;;;;6178588;23;20798;-92
2021/10/29 02:25:08;;;;;;;40.37;26.27;;;6.70;99.90;;;;;;6176013;23;20415;-91
2021/10/29 02:27:35;;;;;;;34.60;25.70;;;6.70;99.90;;;;;;6175244;23;20479;-92
2021/10/29 02:30:03;;;;;;;35.07;26.40;;;6.60;99.90;;;;;;6174972;23;20454;-93
2021/10/29 02:37:52;;;;;;;37.27;28.43;;;6.50;99.90;;;;;;6176968;23;20410;-92
2021/10/29 02:40:25;;;;;;;34.10;28.87;;;6.50;99.90;;;;;;6176714;23;20437;-92
2021/10/29 02:42:52;;;;;;;35.17;27.93;;;6.50;99.90;;;;;;6184626;23;20388;-91
2021/10/29 02:45:20;;;;;;;38.53;27.33;;;6.50;99.90;;;;;;6181260;23;20430;-92
2021/10/29 02:47:48;;;;;;;37.80;28.57;;;6.40;99.90;;;;;;6181165;23;20883;-91
2021/10/29 02:50:16;;;;;;;40.20;26.40;;;6.40;99.90;;;;;;6176605;23;20498;-91
2021/10/29 02:52:44;;;;;;;36.40;27.27;;;6.40;99.90;;;;;;6177460;23;20414;-93
2021/10/29 02:55:12;;;;;;;36.50;25.97;;;6.40;99.90;;;;;;6176218;23;20407;-92
2021/10/29 02:57:43;;;;;;;37.03;26.83;;;6.40;99.90;;;;;;6178241;23;20469;-91
2021/10/29 03:00:12;;;;;;;34.80;26.83;;;6.40;99.90;;;;;;6183906;23;20415;-92
2021/10/29 03:02:39;;;;;;;31.77;26.57;;;6.40;99.90;;;;;;6175143;23;20413;-92
2021/10/29 03:05:08;;;;;;;35.27;24.77;;;6.40;99.90;;;;;;6161744;23;20395;-92
2021/10/29 03:07:35;;;;;;;33.83;25.20;;;6.40;99.90;;;;;;6164780;23;20415;-91
2021/10/29 03:10:03;;;;;;;33.10;25.27;;;6.40;99.90;;;;;;6165921;23;20510;-93
2021/10/29 03:12:30;;;;;;;27.87;24.47;;;6.40;99.90;;;;;;6183614;23;20498;-93
2021/10/29 03:14:59;;;;;;;27.50;23.20;;;6.40;99.90;;;;;;6181233;23;20426;-92
2021/10/29 03:17:26;;;;;;;31.03;25.27;;;6.40;99.90;;;;;;6175593;23;20494;-91
2021/10/29 03:19:53;;;;;;;33.90;24.10;;;6.40;99.90;;;;;;6163734;23;20451;-91
2021/10/29 03:22:20;;;;;;;32.60;25.00;;;6.30;99.90;;;;;;6170963;23;20403;-91
2021/10/29 03:24:47;;;;;;;34.63;25.07;;;6.30;99.90;;;;;;6175588;23;20422;-92
2021/10/29 03:27:13;;;;;;;34.80;26.93;;;6.30;99.90;;;;;;6167801;23;20415;-92
2021/10/29 03:29:41;;;;;;;34.10;24.63;;;6.30;99.90;;;;;;6165227;23;20762;-92
2021/10/29 03:32:10;;;;;;;38.37;26.93;;;6.30;99.90;;;;;;6163528;23;20442;-92
2021/10/29 03:34:37;;;;;;;35.40;24.87;;;6.30;99.90;;;;;;6164433;23;20510;-91
2021/10/29 03:37:11;;;;;;;35.90;26.70;;;6.30;99.90;;;;;;6163542;23;20422;-93
2021/10/29 03:39:47;;;;;;;38.90;26.83;;;6.30;99.90;;;;;;6162459;23;20508;-92
2021/10/29 03:42:24;;;;;;;33.80;28.13;;;6.20;99.90;;;;;;6172880;23;20422;-93
2021/10/29 03:44:55;;;;;;;39.83;25.93;;;6.10;99.90;;;;;;6175853;23;20527;-92
2021/10/29 03:47:28;;;;;;;36.10;27.50;;;6.10;99.90;;;;;;6168946;23;20422;-92
2021/10/29 03:50:05;;;;;;;42.23;27.20;;;6.10;99.90;;;;;;6174854;23;20434;-92
2021/10/29 03:52:35;;;;;;;41.60;29.63;;;6.00;99.90;;;;;;6144347;23;20439;-92
2021/10/29 03:55:06;;;;;;;42.67;29.60;;;6.00;99.90;;;;;;6136469;23;20400;-92
2021/10/29 03:57:33;;;;;;;39.60;28.70;;;6.00;99.90;;;;;;6142223;23;20384;-93
2021/10/29 04:00:00;;;;;;;41.23;28.00;;;5.90;99.90;;;;;;6137652;23;20511;-92
2021/10/29 04:02:30;;;;;;;44.07;29.53;;;5.90;99.90;;;;;;6132684;23;20491;-91
2021/10/29 04:05:02;;;;;;;42.47;26.83;;;5.90;99.90;;;;;;6142334;23;20416;-91
2021/10/29 04:07:29;;;;;;;39.07;25.87;;;5.90;99.90;;;;;;6141165;23;20432;-89
2021/10/29 04:09:55;;;;;;;37.97;26.97;;;5.80;99.90;;;;;;6144096;23;20503;-90
2021/10/29 04:12:27;;;;;;;40.50;26.80;;;5.80;99.90;;;;;;6148017;23;20439;-91
2021/10/29 04:14:54;;;;;;;37.70;25.40;;;5.70;99.90;;;;;;6152457;23;20435;-90
2021/10/29 04:17:22;;;;;;;38.03;26.00;;;5.70;99.90;;;;;;6153816;23;20435;-92
2021/10/29 04:19:50;;;;;;;34.20;24.27;;;5.60;99.90;;;;;;6154043;23;20419;-92
2021/10/29 04:22:17;;;;;;;37.13;23.73;;;5.70;99.90;;;;;;6154537;23;20411;-92
2021/10/29 04:24:44;;;;;;;27.87;20.70;;;5.60;99.90;;;;;;6154413;23;20420;-93
2021/10/29 04:27:19;;;;;;;30.37;22.13;;;5.60;99.90;;;;;;6154371;23;20419;-91
2021/10/29 04:29:48;;;;;;;32.33;23.30;;;5.60;99.90;;;;;;6148381;23;20429;-91
2021/10/29 04:32:15;;;;;;;27.70;23.00;;;5.70;99.90;;;;;;6136027;23;20847;-92
2021/10/29 04:34:41;;;;;;;31.30;24.13;;;5.70;99.90;;;;;;6131725;23;20806;-92
2021/10/29 04:37:10;;;;;;;32.93;22.23;;;5.60;99.90;;;;;;6133068;23;20404;-92
2021/10/29 04:39:38;;;;;;;32.63;22.33;;;5.60;99.90;;;;;;6137146;23;20438;-91
2021/10/29 04:42:06;;;;;;;35.40;25.07;;;5.50;99.90;;;;;;6148050;23;20425;-92
2021/10/29 04:44:32;;;;;;;28.40;22.17;;;5.50;99.90;;;;;;6154404;23;20399;-91
2021/10/29 04:46:59;;;;;;;35.80;24.97;;;5.50;99.90;;;;;;6151015;23;20486;-92
2021/10/29 04:49:26;;;;;;;26.73;21.43;;;5.60;99.90;;;;;;6153894;23;20451;-92
2021/10/29 04:51:53;;;;;;;24.60;20.63;;;5.60;99.90;;;;;;6176609;23;20526;-91
2021/10/29 04:54:22;;;;;;;26.90;21.83;;;5.60;99.90;;;;;;6180231;23;20397;-92
2021/10/29 04:56:49;;;;;;;25.70;21.90;;;5.60;99.90;;;;;;6170128;23;20804;-92
2021/10/29 04:59:17;;;;;;;24.67;19.30;;;5.60;99.90;;;;;;6160432;23;20526;-92
2021/10/29 05:01:46;;;;;;;22.50;19.70;;;5.60;99.90;;;;;;6163346;23;20434;-91
2021/10/29 05:04:14;;;;;;;24.57;20.23;;;5.60;99.90;;;;;;6167210;23;20395;-91
2021/10/29 05:06:41;;;;;;;29.53;21.20;;;5.60;99.90;;;;;;6172492;23;20402;-93
2021/10/29 05:09:08;;;;;;;25.47;22.23;;;5.60;99.90;;;;;;6172463;23;20439;-90
2021/10/29 05:11:36;;;;;;;27.53;22.57;;;5.60;99.90;;;;;;6160050;23;20460;-91
2021/10/29 05:14:03;;;;;;;25.50;20.73;;;5.60;99.90;;;;;;6161080;23;20428;-91
2021/10/29 05:16:30;;;;;;;23.03;20.50;;;5.60;99.90;;;;;;6160751;23;20896;-90
2021/10/29 05:19:06;;;;;;;28.77;21.60;;;5.60;99.90;;;;;;6162679;23;20485;-91
2021/10/29 05:21:42;;;;;;;29.93;22.63;;;5.60;99.90;;;;;;6163751;23;20889;-92
2021/10/29 05:27:09;;;;;;;31.07;23.63;;;5.50;99.90;;;;;;6162929;23;20397;-89
2021/10/29 05:32:18;;;;;;;32.47;24.77;;;5.50;99.90;;;;;;6202222;23;20442;-92
2021/10/29 05:35:12;;;;;;;32.90;25.13;;;5.40;99.90;;;;;;6196142;23;20432;-92
2021/10/29 05:37:48;;;;;;;26.70;20.50;;;5.50;99.90;;;;;;6197952;23;21043;-92
2021/10/29 05:43:37;;;;;;;28.50;19.40;;;5.40;99.90;;;;;;6186513;23;20957;-89
2021/10/29 05:46:06;;;;;;;22.47;19.03;;;5.40;99.90;;;;;;6191314;23;20426;-88
2021/10/29 05:48:37;;;;;;;20.30;17.67;;;5.40;99.90;;;;;;6191769;23;20402;-88
2021/10/29 05:51:09;;;;;;;23.67;18.50;;;5.30;99.90;;;;;;6189198;23;20466;-89
2021/10/29 05:53:40;;;;;;;20.10;17.83;;;5.30;99.90;;;;;;6200508;23;20450;-88
2021/10/29 05:59:38;;;;;;;20.87;18.20;;;5.30;99.90;;;;;;6126183;23;20402;-89
2021/10/29 06:02:05;;;;;;;24.23;17.43;;;5.30;99.90;;;;;;6196545;23;20428;-88
2021/10/29 06:04:32;;;;;;;25.17;17.40;;;5.40;99.90;;;;;;6203481;23;20976;-88
2021/10/29 06:09:47;;;;;;;18.87;16.73;;;5.40;99.90;;;;;;6202250;23;20536;-89
2021/10/29 06:12:14;;;;;;;20.00;14.70;;;5.40;99.90;;;;;;6199255;23;20940;-88
2021/10/29 06:14:46;;;;;;;20.47;16.03;;;5.30;99.90;;;;;;6192274;23;20413;-89
2021/10/29 06:17:18;;;;;;;16.27;13.33;;;5.30;99.90;;;;;;6197391;23;20410;-89
2021/10/29 06:19:45;;;;;;;19.30;14.60;;;5.30;99.90;;;;;;6188434;23;20952;-88
2021/10/29 06:22:15;;;;;;;17.40;15.10;;;5.40;99.90;;;;;;6187292;23;20406;-88
2021/10/29 06:24:43;;;;;;;19.87;16.53;;;5.30;99.90;;;;;;6202599;23;20448;-88
2021/10/29 06:28:10;;;;;;;23.33;15.50;;;5.40;99.90;;;;;;6191522;23;20436;-89
2021/10/29 06:30:01;;;;;;;19.13;16.80;;;5.50;99.90;;;;;;6186988;23;20430;-89
2021/10/29 06:32:44;;;;;;;21.10;15.80;;;5.50;99.90;;;;;;6188611;23;20481;-91
2021/10/29 06:35:15;;;;;;;18.63;15.17;;;5.60;99.90;;;;;;6188311;23;20445;-88
2021/10/29 06:37:47;;;;;;;22.27;17.90;;;5.60;99.90;;;;;;6188846;23;20417;-88
2021/10/29 06:40:17;;;;;;;20.30;16.37;;;5.70;99.90;;;;;;6189287;23;20516;-88
2021/10/29 06:42:56;;;;;;;19.57;14.97;;;5.70;99.90;;;;;;6186275;23;20445;-88
2021/10/29 06:45:44;;;;;;;16.57;14.87;;;5.80;99.90;;;;;;6189798;23;20413;-88
2021/10/29 06:48:26;;;;;;;17.90;14.90;;;5.90;99.90;;;;;;6196806;23;20473;-89
2021/10/29 06:59:36;;;;;;;22.93;17.17;;;6.30;99.90;;;;;;6196163;23;20378;-89
2021/10/29 07:02:27;;;;;;;18.60;14.17;;;6.40;99.90;;;;;;6212799;23;20477;-88
2021/10/29 07:40:53;;;;;;;25.07;19.70;;;7.60;99.90;;;;;;6200642;23;20477;-89
2021/10/29 07:43:28;;;;;;;19.83;16.77;;;7.80;99.90;;;;;;6213457;23;20406;-86
2021/10/29 07:45:58;;;;;;;18.90;16.90;;;7.90;99.90;;;;;;6214086;23;20409;-86
2021/10/29 07:48:30;;;;;;;15.47;14.00;;;7.90;99.90;;;;;;6212773;23;20485;-89
2021/10/29 07:50:59;;;;;;;18.87;15.30;;;8.20;99.90;;;;;;6211686;23;20422;-85
2021/10/29 07:53:28;;;;;;;18.73;14.80;;;8.30;99.90;;;;;;6200712;23;20778;-86
2021/10/29 07:55:59;;;;;;;20.90;16.43;;;8.50;99.90;;;;;;6206991;23;20433;-89
2021/10/29 07:58:26;;;;;;;15.70;14.20;;;8.60;99.90;;;;;;6213264;23;20437;-86
2021/10/29 08:00:55;;;;;;;15.40;13.90;;;8.70;99.90;;;;;;6212930;23;20430;-86
2021/10/29 08:03:26;;;;;;;16.80;15.03;;;8.80;99.90;;;;;;6212648;23;20410;-87
2021/10/29 08:05:53;;;;;;;16.97;13.70;;;9.00;99.90;;;;;;6202819;23;20426;-87
2021/10/29 08:08:26;;;;;;;15.73;14.07;;;9.30;99.90;;;;;;6186849;23;20414;-87
2021/10/29 08:10:55;;;;;;;18.03;14.73;;;9.90;99.90;;;;;;6186239;23;20414;-87
2021/10/29 08:13:23;;;;;;;15.43;13.50;;;10.80;99.90;;;;;;6186241;23;20950;-87
2021/10/29 08:15:54;;;;;;;14.93;13.23;;;11.00;99.90;;;;;;6186023;23;20416;-87
2021/10/29 08:18:23;;;;;;;16.13;13.23;;;11.10;99.90;;;;;;6186019;23;20402;-87
2021/10/29 08:20:50;;;;;;;18.20;15.27;;;11.00;99.90;;;;;;6186263;23;20912;-87
2021/10/29 08:23:18;;;;;;;16.57;14.97;;;11.10;99.90;;;;;;6186130;23;20406;-87
2021/10/29 08:25:52;;;;;;;20.90;15.17;;;11.20;99.90;;;;;;6195934;23;20410;-87
2021/10/29 08:28:22;;;;;;;16.37;14.87;;;11.30;99.90;;;;;;6186065;23;20387;-87
2021/10/29 08:30:51;;;;;;;18.93;16.97;;;11.10;99.90;;;;;;6189407;23;20412;-86
2021/10/29 08:33:19;;;;;;;17.83;15.83;;;10.80;99.90;;;;;;6194781;23;20438;-86
2021/10/29 08:35:51;;;;;;;15.67;14.23;;;10.90;99.90;;;;;;6187090;23;20759;-87
2021/10/29 08:38:24;;;;;;;21.73;14.03;;;10.90;99.90;;;;;;6186018;23;20406;-87
2021/10/29 08:40:54;;;;;;;16.73;15.00;;;10.90;99.90;;;;;;6186085;23;20461;-87
2021/10/29 08:43:22;;;;;;;19.23;16.07;;;10.90;99.90;;;;;;6191984;23;20416;-87
2021/10/29 08:45:53;;;;;;;21.90;16.20;;;10.90;99.90;;;;;;6194779;23;20453;-86
2021/10/29 08:48:23;;;;;;;17.87;16.03;;;10.70;99.90;;;;;;6202271;23;20417;-86
2021/10/29 08:50:53;;;;;;;17.03;15.33;;;10.60;99.90;;;;;;6208660;23;20426;-87
2021/10/29 08:53:20;;;;;;;15.10;13.60;;;10.50;99.90;;;;;;6195676;23;20437;-87
2021/10/29 08:55:56;;;;;;;17.07;15.33;;;10.50;99.90;;;;;;6191280;23;20406;-87
2021/10/29 08:58:27;;;;;;;18.33;15.67;;;10.50;99.90;;;;;;6189875;23;20460;-87
2021/10/29 09:00:56;;;;;;;16.43;14.83;;;10.60;99.90;;;;;;6189376;23;20418;-87
2021/10/29 09:03:29;;;;;;;15.90;14.40;;;10.80;99.90;;;;;;6190086;23;20430;-87
2021/10/29 09:06:15;;;;;;;18.53;16.70;;;10.80;99.90;;;;;;6189142;23;20453;-87
2021/10/29 09:09:07;;;;;;;17.23;15.43;;;10.90;99.90;;;;;;6190081;23;20378;-86
2021/10/29 09:11:53;;;;;;;18.07;16.17;;;11.40;99.90;;;;;;6189270;23;20425;-86
2021/10/29 09:17:29;;;;;;;19.17;17.23;;;11.50;99.90;;;;;;6191974;23;20373;-87
2021/10/29 09:31:36;;;;;;;19.63;17.60;;;12.50;99.90;;;;;;6213181;23;20417;-86
2021/10/29 09:34:15;;;;;;;21.77;17.90;;;12.70;99.90;;;;;;6198846;23;20427;-86
2021/10/29 09:36:53;;;;;;;20.60;18.50;;;12.90;99.90;;;;;;6191870;23;20427;-88
2021/10/29 09:39:22;;;;;;;21.23;19.00;;;13.00;99.90;;;;;;6196559;23;20617;-88
2021/10/29 09:42:02;;;;;;;18.50;16.70;;;13.30;99.90;;;;;;6208296;23;20433;-88
2021/10/29 09:44:47;;;;;;;17.87;16.20;;;13.60;99.90;;;;;;6207036;23;20472;-88
2021/10/29 09:47:18;;;;;;;18.90;16.83;;;13.70;99.90;;;;;;6192429;23;20919;-88
2021/10/29 09:49:54;;;;;;;18.33;16.53;;;13.50;99.90;;;;;;6198224;23;20440;-88
2021/10/29 09:55:50;;;;;;;21.30;19.10;;;13.80;99.90;;;;;;6193605;23;20373;-88
2021/10/29 09:58:21;;;;;;;18.03;16.13;;;13.90;99.90;;;;;;6188817;23;20382;-88
2021/10/29 10:00:58;;;;;;;19.60;17.53;;;14.20;99.90;;;;;;6206048;23;20428;-87
2021/10/29 10:03:30;;;;;;;21.30;19.20;;;14.40;99.90;;;;;;6199976;23;21074;-85
2021/10/29 10:05:59;;;;;;;20.23;17.90;;;15.00;99.90;;;;;;6211217;23;20440;-88
2021/10/29 10:08:28;;;;;;;22.63;17.70;;;15.10;99.30;;;;;;6188189;23;20416;-88
2021/10/29 10:10:58;;;;;;;21.63;19.43;;;15.20;99.00;;;;;;6188286;23;20771;-89
2021/10/29 10:13:28;;;;;;;23.37;20.20;;;15.80;98.70;;;;;;6187890;23;20406;-88
2021/10/29 10:16:02;;;;;;;21.57;19.47;;;17.30;96.60;;;;;;6187833;23;20394;-89
2021/10/29 10:18:29;;;;;;;24.10;18.17;;;18.50;93.60;;;;;;6187830;23;20395;-88
2021/10/29 10:21:00;;;;;;;20.70;18.70;;;19.50;90.60;;;;;;6186808;23;20418;-88
2021/10/29 10:23:31;;;;;;;20.50;18.57;;;19.70;89.40;;;;;;6188367;23;20452;-87
2021/10/29 10:29:20;;;;;;;20.30;18.37;;;21.30;84.10;;;;;;5132719;27;20570;-88
2021/10/29 10:40:36;;;;;;;19.67;17.70;;;21.30;78.80;;;;;;5119676;28;20443;-80
2021/10/29 10:43:15;;;;;;;18.80;17.20;;;21.70;77.90;;;;;;5123594;28;20880;-81
2021/10/29 10:45:51;;;;;;;19.83;18.13;;;22.90;74.30;;;;;;5117085;28;20453;-80
2021/10/29 10:48:27;;;;;;;19.37;17.67;;;22.70;71.90;;;;;;5135572;27;20484;-80
2021/10/29 10:51:00;;;;;;;18.13;16.63;;;23.50;72.40;;;;;;5144517;27;20462;-81
2021/10/29 10:53:43;;;;;;;18.20;16.50;;;23.50;70.00;;;;;;5147832;27;20445;-89
2021/10/29 10:56:18;;;;;;;16.93;15.60;;;24.30;69.20;;;;;;5128314;27;20500;-89
2021/10/29 10:59:00;;;;;;;17.50;15.90;;;25.30;65.90;;;;;;5111620;28;20443;-89
2021/10/29 11:04:38;;;;;;;17.00;15.43;;;26.00;62.00;;;;;;5124631;27;20514;-88
2021/10/29 11:07:27;;;;;;;18.23;16.60;;;25.90;61.20;;;;;;5132873;27;20479;-88
2021/10/29 11:10:06;;;;;;;18.23;16.63;;;25.80;61.10;;;;;;5133930;27;20464;-88
2021/10/29 11:13:16;;;;;;;18.30;16.70;;;25.40;60.50;;;;;;5118349;27;20440;-89
2021/10/29 11:15:58;;;;;;;17.83;16.23;;;25.40;60.70;;;;;;5112872;28;20496;-89
2021/10/29 11:18:32;;;;;;;18.80;17.20;;;25.50;61.20;;;;;;5115361;28;20452;-89
2021/10/29 11:21:09;;;;;;;16.83;15.07;;;25.10;60.70;;;;;;5117032;28;20493;-88
2021/10/29 11:23:38;;;;;;;16.53;14.97;;;24.60;62.30;;;;;;5144860;27;20541;-88
2021/10/29 11:26:21;;;;;;;16.70;15.20;;;24.60;62.50;;;;;;5144213;27;20449;-88
2021/10/29 11:28:51;;;;;;;15.20;14.00;;;24.70;62.10;;;;;;5131650;27;20476;-89
2021/10/29 11:34:04;;;;;;;16.80;14.53;;;26.50;59.50;;;;;;5300663;22;20485;-93
2021/10/29 11:36:33;;;;;;;16.10;14.17;;;26.70;58.30;;;;;;5037845;28;20507;-93
2021/10/29 11:39:11;;;;;;;15.30;14.00;;;27.60;56.40;;;;;;5030613;28;20442;-95
2021/10/29 11:41:50;;;;;;;15.67;14.30;;;28.00;54.90;;;;;;5017958;28;20501;-94
2021/10/29 11:44:31;;;;;;;14.87;13.53;;;26.70;55.80;;;;;;5005782;28;20451;-93
2021/10/29 11:50:12;;;;;;;13.47;12.20;;;27.70;55.50;;;;;;5006294;28;20433;-93
2021/10/29 11:53:19;;;;;;;13.47;12.33;;;27.80;53.90;;;;;;5029885;28;20407;-96
2021/10/29 12:07:36;;;;;;;13.63;12.33;;;27.00;53.90;;;;;;5017509;28;20532;-92
2021/10/29 12:10:08;;;;;;;11.83;10.73;;;26.40;55.10;;;;;;5027672;28;20465;-92
2021/10/29 12:12:37;;;;;;;13.57;12.20;;;26.10;54.50;;;;;;5018822;28;20476;-91
2021/10/29 12:15:14;;;;;;;13.33;11.93;;;26.00;55.00;;;;;;5009041;28;20477;-92
2021/10/29 12:17:56;;;;;;;12.27;11.17;;;25.60;55.60;;;;;;5019708;28;20447;-90
2021/10/29 12:20:34;;;;;;;12.33;11.43;;;24.80;57.90;;;;;;5028577;28;20470;-91
2021/10/29 12:23:22;;;;;;;14.00;12.70;;;24.70;57.80;;;;;;5027431;28;20478;-91
2021/10/29 12:25:59;;;;;;;13.93;12.73;;;23.90;59.70;;;;;;5010574;28;20456;-91
2021/10/29 12:28:39;;;;;;;11.90;10.70;;;23.10;60.60;;;;;;5002805;28;20484;-92
2021/10/29 12:31:12;;;;;;;11.97;10.87;;;23.00;61.20;;;;;;5019287;28;20492;-91
2021/10/29 12:36:56;;;;;;;12.07;10.83;;;23.10;60.00;;;;;;5032254;28;20495;-91
2021/10/29 12:54:09;;;;;;;12.67;11.47;;;21.50;67.50;;;;;;5028023;28;20419;-93
2021/10/29 13:02:23;;;;;;;11.53;10.53;;;21.50;68.10;;;;;;4989219;28;20434;-92
2021/10/29 13:04:53;;;;;;;12.20;11.17;;;22.50;67.20;;;;;;5023392;28;20455;-94
2021/10/29 13:07:26;;;;;;;11.60;10.43;;;23.20;64.20;;;;;;5027320;28;20462;-94
2021/10/29 13:10:05;;;;;;;11.30;10.30;;;24.40;61.10;;;;;;5029965;28;20441;-93
2021/10/29 13:12:44;;;;;;;11.60;10.57;;;24.90;58.30;;;;;;5027717;28;20434;-94
2021/10/29 13:15:21;;;;;;;12.33;11.23;;;25.00;57.80;;;;;;5024965;28;20450;-94
2021/10/29 13:17:54;;;;;;;12.73;11.20;;;24.80;57.40;;;;;;5027707;28;20437;-94
2021/10/29 13:20:45;;;;;;;11.00;10.00;;;24.40;58.00;;;;;;5033433;28;20457;-93
2021/10/29 13:23:42;;;;;;;10.30;9.40;;;23.70;59.00;;;;;;5028755;28;20476;-93
2021/10/29 13:36:56;;;;;;;9.30;8.50;;;23.90;57.70;;;;;;5058228;28;20463;-91
2021/10/29 13:54:09;;;;;;;7.87;7.07;;;21.60;61.30;;;;;;5051293;28;20452;-91
2021/10/29 13:59:53;;;;;;;8.30;7.60;;;21.10;63.90;;;;;;5034547;28;20449;-93
2021/10/29 14:28:32;;;;;;;9.70;8.43;;;19.00;69.50;;;;;;5039306;28;20550;-92
2021/10/29 14:31:16;;;;;;;9.70;8.27;;;18.90;69.30;;;;;;5025858;28;20489;-93
2021/10/29 14:33:51;;;;;;;10.67;9.67;;;18.80;69.30;;;;;;5021003;28;20461;-93
2021/10/29 14:39:20;;;;;;;9.27;8.37;;;18.80;70.30;;;;;;5249861;23;20480;-92
2021/10/29 14:42:09;;;;;;;9.93;8.93;;;18.80;71.80;;;;;;4998808;28;20481;-94
2021/10/29 14:44:56;;;;;;;10.47;9.47;;;18.50;72.30;;;;;;4993976;28;20540;-92
2021/10/29 14:47:55;;;;;;;9.77;8.87;;;18.30;73.10;;;;;;5000711;28;20469;-92
2021/10/29 14:50:52;;;;;;;9.30;8.40;;;18.10;74.60;;;;;;5006301;28;20451;-91
2021/10/29 15:05:50;;;;;;;9.13;8.20;;;17.40;77.50;;;;;;5003219;28;20422;-93
2021/10/29 15:17:23;;;;;;;9.90;9.00;;;16.80;79.10;;;;;;4975080;28;20425;-93
2021/10/29 15:25:42;;;;;;;9.30;7.80;;;16.60;80.60;;;;;;5006711;28;20497;-88
2021/10/29 15:28:17;;;;;;;14.43;8.83;;;16.50;81.50;;;;;;5003757;28;20480;-87
2021/10/29 15:30:48;;;;;;;10.20;9.00;;;16.50;81.90;;;;;;5001944;28;20502;-87
2021/10/29 15:33:43;;;;;;;9.10;8.07;;;16.50;82.10;;;;;;5011255;28;20522;-83
2021/10/29 15:41:48;;;;;;;13.63;10.00;;;16.00;84.00;;;;;;5006908;28;20453;-83
2021/10/29 15:44:20;;;;;;;11.80;10.10;;;15.90;84.90;;;;;;5008429;28;21262;-84
2021/10/29 15:46:54;;;;;;;10.87;9.07;;;15.80;85.40;;;;;;5010161;28;20446;-84
2021/10/29 15:49:37;;;;;;;13.53;10.50;;;15.80;85.70;;;;;;5027623;28;20477;-88
2021/10/29 15:52:10;;;;;;;8.67;7.80;;;15.80;85.60;;;;;;5033620;28;20490;-88
2021/10/29 15:54:43;;;;;;;9.17;8.27;;;15.70;84.50;;;;;;5032372;28;20445;-88
2021/10/29 15:57:11;;;;;;;11.53;8.30;;;15.60;84.70;;;;;;5020984;28;20459;-89
2021/10/29 15:59:46;;;;;;;10.00;9.00;;;15.40;85.80;;;;;;5015688;28;20452;-89
2021/10/29 16:02:29;;;;;;;13.43;9.13;;;15.30;86.30;;;;;;5008483;28;20594;-89
2021/10/29 16:25:36;;;;;;;11.07;9.03;;;14.20;89.80;;;;;;4964822;28;20433;-93
2021/10/29 16:28:05;;;;;;;9.40;8.50;;;14.10;90.20;;;;;;4968688;28;20474;-92
2021/10/29 16:30:34;;;;;;;11.97;9.77;;;13.90;90.80;;;;;;4969980;28;20503;-93
2021/10/29 16:35:47;;;;;;;14.57;9.40;;;13.80;91.60;;;;;;4965044;28;20443;-92
2021/10/29 16:38:17;;;;;;;11.30;8.57;;;13.80;92.20;;;;;;4961548;28;20438;-93
2021/10/29 16:43:23;;;;;;;15.17;9.60;;;13.70;92.60;;;;;;4985020;28;20464;-93
2021/10/29 16:48:36;;;;;;;12.20;10.13;;;13.60;92.90;;;;;;4988119;28;20564;-94
2021/10/29 16:51:08;;;;;;;9.93;8.70;;;13.60;93.20;;;;;;4990801;28;20492;-93
2021/10/29 16:53:43;;;;;;;14.50;9.87;;;13.50;93.40;;;;;;4993096;28;20463;-93
2021/10/29 16:56:37;;;;;;;14.43;10.43;;;13.40;93.70;;;;;;4995681;28;20501;-91
2021/10/29 16:59:08;;;;;;;13.50;10.23;;;13.40;94.00;;;;;;4999404;28;20456;-91
2021/10/29 17:01:35;;;;;;;13.83;10.90;;;13.20;94.40;;;;;;4995822;28;20506;-93
2021/10/29 17:04:05;;;;;;;13.20;11.00;;;13.10;94.90;;;;;;4996936;28;20656;-93
2021/10/29 17:06:32;;;;;;;13.83;11.17;;;13.10;95.10;;;;;;4996834;28;20449;-93
2021/10/29 17:08:59;;;;;;;14.10;11.37;;;13.10;95.70;;;;;;4993830;28;20489;-93
2021/10/29 17:11:26;;;;;;;12.97;10.23;;;13.00;96.10;;;;;;4991113;28;20557;-92
2021/10/29 17:13:54;;;;;;;13.03;10.63;;;13.10;96.40;;;;;;4993646;28;20449;-94
2021/10/29 17:16:21;;;;;;;14.70;11.20;;;13.10;96.50;;;;;;4998111;28;20495;-93
2021/10/29 17:18:48;;;;;;;15.40;12.17;;;13.00;96.80;;;;;;4990872;28;20449;-94
2021/10/29 17:21:16;;;;;;;13.73;11.10;;;12.90;97.10;;;;;;4993877;28;20467;-93
2021/10/29 17:23:45;;;;;;;16.60;10.47;;;12.90;97.50;;;;;;4994233;28;20437;-92
2021/10/29 17:26:12;;;;;;;16.57;12.97;;;12.80;97.80;;;;;;4996287;28;20509;-93
2021/10/29 17:28:40;;;;;;;17.27;13.97;;;12.80;98.20;;;;;;4995026;28;20485;-93
2021/10/29 17:31:07;;;;;;;16.33;13.40;;;12.70;98.50;;;;;;4993683;28;20461;-94
2021/10/29 17:33:34;;;;;;;17.27;13.57;;;12.80;98.50;;;;;;4994710;28;20459;-94
2021/10/29 17:36:02;;;;;;;14.70;12.73;;;12.70;98.90;;;;;;4991126;28;20452;-93
2021/10/29 17:38:30;;;;;;;19.17;12.90;;;12.50;99.30;;;;;;4990440;28;20472;-94
2021/10/29 17:40:57;;;;;;;17.30;14.17;;;12.50;99.50;;;;;;4990654;28;20472;-94
2021/10/29 17:43:25;;;;;;;18.20;14.30;;;12.40;99.90;;;;;;4999422;28;20455;-92
2021/10/29 17:45:56;;;;;;;19.60;14.80;;;12.40;99.90;;;;;;4997791;28;20452;-93
2021/10/29 17:48:23;;;;;;;19.30;14.37;;;12.30;99.90;;;;;;4993882;28;20499;-94